Time;durP1;ratioP1;P1;durP2;ratioP2;P2;SDS_P1;SDS_P2;PMS_P1;PMS_P2;Temp;Humidity;BMP_temperature;BMP_pressure;BME280_temperature;BME280_humidity;BME280_pressure;Samples;Min_cycle;Max_cycle;Signal;HPM_P1;HPM_P2
2022/12/06 00:02:00;;;;;;;0.00;0.00;;;;;;;;;;4939848;29;20039;-91
2022/12/06 00:04:26;;;;;;;0.00;0.00;;;;;;;;;;4939648;29;20134;-93
2022/12/06 00:06:53;;;;;;;0.00;0.00;;;;;;;;;;4939768;29;20539;-91
2022/12/06 00:09:24;;;;;;;0.00;0.00;;;;;;;;;;4939681;29;20043;-92
2022/12/06 00:11:50;;;;;;;0.00;0.00;;;;;;;;;;4939630;29;20039;-92
2022/12/06 00:14:16;;;;;;;0.00;0.00;;;;;;;;;;4939513;29;20043;-92
2022/12/06 00:16:43;;;;;;;0.00;0.00;;;;;;;;;;4939431;29;20050;-92
2022/12/06 00:19:12;;;;;;;0.00;0.00;;;;;;;;;;4939705;29;20082;-91
2022/12/06 00:21:38;;;;;;;0.00;0.00;;;;;;;;;;4939059;29;20129;-89
2022/12/06 00:24:06;;;;;;;0.00;0.00;;;;;;;;;;4939182;29;20070;-91
2022/12/06 00:26:34;;;;;;;0.00;0.00;;;;;;;;;;4939231;29;20050;-90
2022/12/06 00:29:00;;;;;;;0.00;0.00;;;;;;;;;;4939355;29;20039;-89
2022/12/06 00:31:27;;;;;;;0.00;0.00;;;;;;;;;;4939310;29;20063;-92
2022/12/06 00:33:54;;;;;;;0.00;0.00;;;;;;;;;;4939399;29;20050;-94
2022/12/06 00:36:21;;;;;;;0.00;0.00;;;;;;;;;;4955003;29;20043;-91
2022/12/06 00:38:47;;;;;;;0.00;0.00;;;;;;;;;;4939451;29;20078;-92
2022/12/06 00:41:15;;;;;;;0.00;0.00;;;;;;;;;;4939100;29;20392;-92
2022/12/06 00:43:41;;;;;;;0.00;0.00;;;;;;;;;;4939422;29;20418;-90
2022/12/06 00:46:08;;;;;;;0.00;0.00;;;;;;;;;;4939417;29;20122;-92
2022/12/06 00:48:34;;;;;;;0.00;0.00;;;;;;;;;;4939143;29;20039;-90
2022/12/06 00:51:03;;;;;;;0.00;0.00;;;;;;;;;;4954759;28;20346;-92
2022/12/06 00:53:29;;;;;;;0.00;0.00;;;;;;;;;;4939017;29;20057;-92
2022/12/06 00:55:56;;;;;;;0.00;0.00;;;;;;;;;;4938850;29;20066;-93
2022/12/06 00:58:22;;;;;;;0.00;0.00;;;;;;;;;;4939071;29;20043;-93
2022/12/06 01:00:50;;;;;;;0.00;0.00;;;;;;;;;;4937771;29;20489;-92
2022/12/06 01:03:16;;;;;;;0.00;0.00;;;;;;;;;;4938758;29;20105;-93
2022/12/06 01:05:44;;;;;;;0.00;0.00;;;;;;;;;;4938641;29;20043;-93
2022/12/06 01:08:10;;;;;;;0.00;0.00;;;;;;;;;;4939213;29;20137;-91
2022/12/06 01:10:36;;;;;;;0.00;0.00;;;;;;;;;;4954891;29;20397;-90
2022/12/06 01:13:03;;;;;;;0.00;0.00;;;;;;;;;;4938413;29;20043;-91
2022/12/06 01:15:34;;;;;;;0.00;0.00;;;;;;;;;;4939200;29;20473;-90
2022/12/06 01:18:00;;;;;;;0.00;0.00;;;;;;;;;;4938361;29;20062;-92
2022/12/06 01:20:26;;;;;;;0.00;0.00;;;;;;;;;;4954470;28;20108;-91
2022/12/06 01:22:52;;;;;;;0.00;0.00;;;;;;;;;;4938429;29;20418;-90
2022/12/06 01:25:21;;;;;;;0.00;0.00;;;;;;;;;;4938603;29;20077;-91
2022/12/06 01:27:47;;;;;;;0.00;0.00;;;;;;;;;;4938078;29;20079;-92
2022/12/06 01:30:13;;;;;;;0.00;0.00;;;;;;;;;;4954625;29;20078;-91
2022/12/06 01:32:39;;;;;;;0.00;0.00;;;;;;;;;;4938651;29;20046;-92
2022/12/06 01:35:05;;;;;;;0.00;0.00;;;;;;;;;;4938761;29;20098;-91
2022/12/06 01:37:31;;;;;;;0.00;0.00;;;;;;;;;;4938281;29;20130;-90
2022/12/06 01:39:57;;;;;;;0.00;0.00;;;;;;;;;;4953999;28;20074;-90
2022/12/06 01:42:23;;;;;;;0.00;0.00;;;;;;;;;;4938125;29;20463;-92
2022/12/06 01:44:50;;;;;;;0.00;0.00;;;;;;;;;;4938871;29;20042;-91
2022/12/06 01:47:16;;;;;;;0.00;0.00;;;;;;;;;;4954488;28;20043;-92
2022/12/06 01:49:43;;;;;;;0.00;0.00;;;;;;;;;;4938177;29;20039;-91
2022/12/06 01:52:10;;;;;;;0.00;0.00;;;;;;;;;;4938798;29;20044;-91
2022/12/06 01:54:36;;;;;;;0.00;0.00;;;;;;;;;;4938504;29;20084;-91
2022/12/06 01:57:07;;;;;;;0.00;0.00;;;;;;;;;;4937994;29;20079;-93
2022/12/06 01:59:33;;;;;;;0.00;0.00;;;;;;;;;;4938100;29;20055;-91
2022/12/06 02:01:59;;;;;;;0.00;0.00;;;;;;;;;;4938064;29;20043;-91
2022/12/06 02:04:26;;;;;;;0.00;0.00;;;;;;;;;;4938407;29;20046;-91
2022/12/06 02:06:53;;;;;;;0.00;0.00;;;;;;;;;;4937944;29;20040;-92
2022/12/06 02:09:20;;;;;;;0.00;0.00;;;;;;;;;;4938091;29;20113;-91
2022/12/06 02:11:46;;;;;;;0.00;0.00;;;;;;;;;;4938597;29;20094;-89
2022/12/06 02:14:17;;;;;;;0.00;0.00;;;;;;;;;;4941303;29;20500;-87
2022/12/06 02:16:52;;;;;;;0.00;0.00;;;;;;;;;;4957262;28;20047;-93
2022/12/06 02:19:37;;;;;;;0.00;0.00;;;;;;;;;;4941813;29;20069;-90
2022/12/06 02:22:07;;;;;;;0.00;0.00;;;;;;;;;;4957708;29;20412;-91
2022/12/06 02:25:05;;;;;;;0.00;0.00;;;;;;;;;;4957574;28;20071;-91
2022/12/06 02:27:50;;;;;;;0.00;0.00;;;;;;;;;;4890307;29;20146;-91
2022/12/06 02:30:34;;;;;;;0.00;0.00;;;;;;;;;;4941659;29;20045;-89
2022/12/06 02:33:04;;;;;;;0.00;0.00;;;;;;;;;;4941456;29;20046;-90
2022/12/06 02:35:34;;;;;;;0.00;0.00;;;;;;;;;;4941532;29;20043;-91
2022/12/06 02:38:07;;;;;;;0.00;0.00;;;;;;;;;;4941201;29;20039;-92
2022/12/06 02:40:36;;;;;;;0.00;0.00;;;;;;;;;;4941511;29;20035;-92
2022/12/06 02:43:04;;;;;;;0.00;0.00;;;;;;;;;;4941674;29;20043;-92
2022/12/06 02:45:34;;;;;;;0.00;0.00;;;;;;;;;;4941310;29;20039;-90
2022/12/06 02:48:01;;;;;;;0.00;0.00;;;;;;;;;;4941167;29;20396;-92
2022/12/06 02:50:37;;;;;;;0.00;0.00;;;;;;;;;;4941321;29;20039;-91
2022/12/06 02:53:05;;;;;;;0.00;0.00;;;;;;;;;;4941251;29;20065;-92
2022/12/06 02:55:32;;;;;;;0.00;0.00;;;;;;;;;;4957574;28;20093;-91
2022/12/06 02:57:58;;;;;;;0.00;0.00;;;;;;;;;;4941071;29;20054;-93
2022/12/06 03:00:24;;;;;;;0.00;0.00;;;;;;;;;;4941173;29;20055;-93
2022/12/06 03:02:51;;;;;;;0.20;0.10;;;;;;;;;;4940728;29;20050;-91
2022/12/06 03:05:24;;;;;;;0.00;0.00;;;;;;;;;;4957188;29;20178;-92
2022/12/06 03:07:50;;;;;;;0.00;0.00;;;;;;;;;;4957039;29;20050;-91
2022/12/06 03:10:35;;;;;;;0.00;0.00;;;;;;;;;;4941771;29;20082;-92
2022/12/06 03:13:11;;;;;;;0.00;0.00;;;;;;;;;;4956491;28;20050;-92
2022/12/06 03:15:44;;;;;;;0.00;0.00;;;;;;;;;;4957065;29;20054;-91
2022/12/06 03:18:30;;;;;;;0.00;0.00;;;;;;;;;;4940678;29;20134;-93
2022/12/06 03:21:04;;;;;;;0.00;0.00;;;;;;;;;;4941240;29;20120;-91
2022/12/06 03:23:32;;;;;;;0.00;0.00;;;;;;;;;;4939906;29;20141;-92
2022/12/06 03:26:03;;;;;;;0.00;0.00;;;;;;;;;;4940726;29;20047;-94
2022/12/06 03:28:29;;;;;;;0.00;0.00;;;;;;;;;;4940452;29;20035;-92
2022/12/06 03:30:58;;;;;;;0.00;0.00;;;;;;;;;;4941201;29;20078;-92
2022/12/06 03:33:25;;;;;;;0.00;0.00;;;;;;;;;;4940267;29;20488;-93
2022/12/06 03:35:52;;;;;;;0.00;0.00;;;;;;;;;;4940744;29;20445;-92
2022/12/06 03:38:26;;;;;;;0.00;0.00;;;;;;;;;;4940239;29;20039;-94
2022/12/06 03:40:52;;;;;;;0.00;0.00;;;;;;;;;;4940266;29;20047;-92
2022/12/06 03:43:19;;;;;;;0.00;0.00;;;;;;;;;;4940734;29;20039;-93
2022/12/06 03:45:49;;;;;;;0.00;0.00;;;;;;;;;;4940877;29;20047;-93
2022/12/06 03:48:31;;;;;;;0.00;0.00;;;;;;;;;;4940246;29;20098;-92
2022/12/06 03:50:59;;;;;;;0.00;0.00;;;;;;;;;;4940479;29;20043;-92
2022/12/06 03:53:25;;;;;;;0.00;0.00;;;;;;;;;;4940011;29;20039;-93
2022/12/06 03:55:51;;;;;;;0.00;0.00;;;;;;;;;;4940085;29;20043;-92
2022/12/06 03:58:17;;;;;;;0.00;0.00;;;;;;;;;;4940319;29;20098;-93
2022/12/06 04:00:43;;;;;;;0.00;0.00;;;;;;;;;;4939987;29;20074;-92
2022/12/06 04:03:09;;;;;;;0.00;0.00;;;;;;;;;;4939854;29;20050;-93
2022/12/06 04:05:35;;;;;;;0.00;0.00;;;;;;;;;;4940217;29;20051;-91
2022/12/06 04:08:01;;;;;;;0.00;0.00;;;;;;;;;;4939318;29;20043;-91
2022/12/06 04:10:27;;;;;;;0.00;0.00;;;;;;;;;;4939954;29;20083;-93
2022/12/06 04:12:59;;;;;;;0.00;0.00;;;;;;;;;;4939802;29;20079;-92
2022/12/06 04:15:25;;;;;;;0.00;0.00;;;;;;;;;;4939749;29;20086;-92
2022/12/06 04:18:10;;;;;;;0.00;0.00;;;;;;;;;;4939774;29;20057;-91
2022/12/06 04:23:49;;;;;;;0.00;0.00;;;;;;;;;;4940432;28;20043;-93
2022/12/06 04:26:17;;;;;;;0.00;0.00;;;;;;;;;;4939533;29;20564;-90
2022/12/06 04:39:43;;;;;;;0.00;0.00;;;;;;;;;;4954830;29;20047;-91
2022/12/06 04:44:57;;;;;;;0.00;0.00;;;;;;;;;;4955989;29;20530;-91
2022/12/06 04:47:23;;;;;;;0.00;0.00;;;;;;;;;;4955415;29;20509;-92
2022/12/06 04:49:49;;;;;;;0.00;0.00;;;;;;;;;;4938900;29;20491;-91
2022/12/06 04:52:18;;;;;;;0.00;0.00;;;;;;;;;;4955023;29;20039;-91
2022/12/06 04:54:44;;;;;;;0.00;0.00;;;;;;;;;;4939198;29;20400;-92
2022/12/06 04:57:11;;;;;;;0.00;0.00;;;;;;;;;;4954767;29;20050;-92
2022/12/06 04:59:38;;;;;;;0.00;0.00;;;;;;;;;;4938536;29;20182;-90
2022/12/06 05:02:04;;;;;;;0.00;0.00;;;;;;;;;;4938982;29;20509;-92
2022/12/06 05:04:31;;;;;;;0.00;0.00;;;;;;;;;;4938882;29;20039;-92
2022/12/06 05:06:57;;;;;;;0.00;0.00;;;;;;;;;;4938889;29;20073;-93
2022/12/06 05:09:23;;;;;;;0.00;0.00;;;;;;;;;;4938809;29;20051;-92
2022/12/06 05:11:49;;;;;;;0.00;0.00;;;;;;;;;;4954976;28;20047;-93
2022/12/06 05:14:15;;;;;;;0.00;0.00;;;;;;;;;;4938532;29;20534;-93
2022/12/06 05:16:41;;;;;;;0.00;0.00;;;;;;;;;;4938729;29;20050;-91
2022/12/06 05:19:07;;;;;;;0.00;0.00;;;;;;;;;;4938441;29;20055;-91
2022/12/06 05:21:36;;;;;;;0.00;0.00;;;;;;;;;;4938843;29;20062;-91
2022/12/06 05:24:02;;;;;;;0.00;0.00;;;;;;;;;;4938479;29;20493;-93
2022/12/06 05:26:28;;;;;;;0.00;0.00;;;;;;;;;;4938654;29;20050;-91
2022/12/06 05:28:54;;;;;;;0.00;0.00;;;;;;;;;;4938570;29;20035;-92
2022/12/06 05:31:21;;;;;;;0.00;0.00;;;;;;;;;;4954585;28;20051;-92
2022/12/06 05:33:47;;;;;;;0.00;0.00;;;;;;;;;;4938570;29;20055;-91
2022/12/06 05:36:18;;;;;;;0.00;0.00;;;;;;;;;;4938691;29;20134;-91
2022/12/06 05:38:45;;;;;;;0.00;0.00;;;;;;;;;;4938184;29;20051;-90
2022/12/06 05:41:11;;;;;;;0.00;0.00;;;;;;;;;;4938368;29;20129;-91
2022/12/06 05:43:37;;;;;;;0.00;0.00;;;;;;;;;;4938170;29;20083;-91
2022/12/06 05:46:03;;;;;;;0.00;0.00;;;;;;;;;;4938880;28;20082;-91
2022/12/06 05:48:29;;;;;;;0.00;0.00;;;;;;;;;;4944620;29;20168;-91
2022/12/06 05:50:55;;;;;;;0.00;0.00;;;;;;;;;;4944478;29;20047;-91
2022/12/06 05:53:24;;;;;;;0.00;0.00;;;;;;;;;;4945334;28;20134;-91
2022/12/06 05:55:50;;;;;;;0.00;0.00;;;;;;;;;;4944779;29;20051;-92
2022/12/06 05:58:17;;;;;;;0.00;0.00;;;;;;;;;;4945097;29;20047;-92
2022/12/06 06:00:47;;;;;;;0.00;0.00;;;;;;;;;;4944916;28;20051;-91
2022/12/06 06:03:13;;;;;;;0.00;0.00;;;;;;;;;;4944784;28;20405;-93
2022/12/06 06:05:44;;;;;;;0.00;0.00;;;;;;;;;;4944507;29;20039;-93
2022/12/06 06:08:10;;;;;;;0.00;0.00;;;;;;;;;;4944791;29;20484;-91
2022/12/06 06:10:36;;;;;;;0.00;0.00;;;;;;;;;;4944744;28;20039;-91
2022/12/06 06:13:03;;;;;;;0.00;0.00;;;;;;;;;;4944783;29;20043;-90
2022/12/06 06:15:31;;;;;;;0.00;0.00;;;;;;;;;;4944235;28;20039;-93
2022/12/06 06:17:57;;;;;;;0.00;0.00;;;;;;;;;;4944452;29;20087;-91
2022/12/06 06:20:23;;;;;;;0.00;0.00;;;;;;;;;;4944428;29;20090;-92
2022/12/06 06:22:49;;;;;;;0.00;0.00;;;;;;;;;;4944949;29;20392;-91
2022/12/06 06:25:16;;;;;;;0.00;0.00;;;;;;;;;;4944347;29;20039;-90
2022/12/06 06:27:43;;;;;;;0.00;0.00;;;;;;;;;;4944472;29;20043;-91
2022/12/06 06:30:10;;;;;;;0.00;0.00;;;;;;;;;;4960032;28;20070;-89
2022/12/06 06:32:36;;;;;;;0.00;0.00;;;;;;;;;;4944473;29;20493;-90
2022/12/06 06:35:03;;;;;;;0.00;0.00;;;;;;;;;;4960013;28;20050;-91
2022/12/06 06:37:29;;;;;;;0.00;0.00;;;;;;;;;;4960145;28;20043;-91
2022/12/06 06:39:55;;;;;;;0.00;0.00;;;;;;;;;;4943745;29;20492;-92
2022/12/06 06:42:21;;;;;;;0.00;0.00;;;;;;;;;;4944504;29;20049;-92
2022/12/06 06:44:47;;;;;;;0.00;0.00;;;;;;;;;;4944848;29;20047;-90
2022/12/06 06:47:16;;;;;;;0.00;0.00;;;;;;;;;;4960559;28;20035;-93
2022/12/06 06:49:42;;;;;;;0.00;0.00;;;;;;;;;;4944337;29;20049;-92
2022/12/06 06:52:08;;;;;;;0.00;0.00;;;;;;;;;;4944672;29;20043;-92
2022/12/06 06:54:34;;;;;;;0.00;0.00;;;;;;;;;;4944250;29;20468;-92
2022/12/06 06:57:01;;;;;;;0.00;0.00;;;;;;;;;;4944940;29;20453;-91
2022/12/06 06:59:27;;;;;;;0.00;0.00;;;;;;;;;;4939933;29;20500;-91
2022/12/06 07:01:53;;;;;;;0.00;0.00;;;;;;;;;;4940975;29;20055;-91
2022/12/06 07:04:19;;;;;;;0.00;0.00;;;;;;;;;;4941247;29;20051;-92
2022/12/06 07:06:45;;;;;;;0.00;0.00;;;;;;;;;;4941127;29;20159;-91
2022/12/06 07:09:12;;;;;;;0.00;0.00;;;;;;;;;;4956655;28;20108;-92
2022/12/06 07:11:38;;;;;;;0.00;0.00;;;;;;;;;;4940766;29;20098;-91
2022/12/06 07:14:04;;;;;;;0.00;0.00;;;;;;;;;;4940809;29;20043;-90
2022/12/06 07:16:30;;;;;;;0.00;0.00;;;;;;;;;;4940733;29;20043;-93
2022/12/06 07:18:58;;;;;;;0.00;0.00;;;;;;;;;;4940829;29;20065;-93
2022/12/06 07:21:26;;;;;;;0.00;0.00;;;;;;;;;;4940312;29;20134;-93
2022/12/06 07:23:52;;;;;;;0.00;0.00;;;;;;;;;;4940448;29;20086;-91
2022/12/06 07:26:19;;;;;;;0.00;0.00;;;;;;;;;;4940519;29;20496;-90
2022/12/06 07:28:46;;;;;;;0.00;0.00;;;;;;;;;;4940166;29;20473;-92
2022/12/06 07:31:20;;;;;;;0.00;0.00;;;;;;;;;;4940280;29;20081;-89
2022/12/06 07:33:47;;;;;;;0.03;0.03;;;;;;;;;;4940694;29;20126;-88
2022/12/06 07:36:14;;;;;;;0.00;0.00;;;;;;;;;;4955533;28;20043;-87
2022/12/06 07:38:41;;;;;;;0.00;0.00;;;;;;;;;;4939847;29;20043;-88
2022/12/06 07:46:38;;;;;;;0.00;0.00;;;;;;;;;;4955284;28;20074;-87
2022/12/06 07:49:04;;;;;;;0.00;0.00;;;;;;;;;;4939404;29;20085;-86
2022/12/06 07:51:30;;;;;;;0.00;0.00;;;;;;;;;;4939542;29;20039;-84
2022/12/06 07:53:56;;;;;;;0.00;0.00;;;;;;;;;;4955751;29;20043;-86
2022/12/06 07:56:23;;;;;;;0.00;0.00;;;;;;;;;;4973308;28;20046;-87
2022/12/06 07:58:49;;;;;;;0.00;0.00;;;;;;;;;;4974255;28;20610;-86
2022/12/06 08:01:15;;;;;;;0.00;0.00;;;;;;;;;;4958034;28;20079;-89
2022/12/06 08:03:41;;;;;;;0.00;0.00;;;;;;;;;;4973608;28;20077;-93
2022/12/06 08:06:07;;;;;;;0.00;0.00;;;;;;;;;;4958148;28;20051;-87
2022/12/06 08:08:33;;;;;;;0.00;0.00;;;;;;;;;;4973731;28;20042;-87
2022/12/06 08:11:00;;;;;;;0.00;0.00;;;;;;;;;;4973584;28;20050;-89
2022/12/06 08:13:27;;;;;;;0.00;0.00;;;;;;;;;;4973795;28;20043;-88
2022/12/06 08:15:53;;;;;;;0.00;0.00;;;;;;;;;;4973438;28;20047;-88
2022/12/06 08:18:18;;;;;;;0.00;0.00;;;;;;;;;;4957488;28;20042;-87
2022/12/06 08:20:44;;;;;;;0.00;0.00;;;;;;;;;;4973629;28;20109;-87
2022/12/06 08:23:11;;;;;;;0.00;0.00;;;;;;;;;;4973862;28;20049;-87
2022/12/06 08:25:37;;;;;;;0.00;0.00;;;;;;;;;;4973268;28;20038;-87
2022/12/06 08:28:03;;;;;;;0.00;0.00;;;;;;;;;;4973549;28;20109;-88
2022/12/06 08:30:29;;;;;;;0.00;0.00;;;;;;;;;;4957302;28;20101;-89
2022/12/06 08:32:55;;;;;;;0.00;0.00;;;;;;;;;;4957875;28;20117;-90
2022/12/06 08:35:21;;;;;;;0.00;0.00;;;;;;;;;;4957522;28;20050;-89
2022/12/06 08:37:47;;;;;;;0.00;0.00;;;;;;;;;;4973590;28;20476;-88
2022/12/06 08:40:13;;;;;;;0.00;0.00;;;;;;;;;;4957209;28;20126;-87
2022/12/06 08:42:40;;;;;;;0.00;0.00;;;;;;;;;;4973584;28;20074;-88
2022/12/06 08:45:07;;;;;;;0.00;0.00;;;;;;;;;;4973521;28;20042;-88
2022/12/06 08:47:33;;;;;;;0.00;0.00;;;;;;;;;;4973817;28;20070;-89
2022/12/06 08:49:59;;;;;;;0.00;0.00;;;;;;;;;;4957249;28;20042;-88
2022/12/06 08:52:25;;;;;;;0.00;0.00;;;;;;;;;;4973564;28;20399;-87
2022/12/06 08:54:51;;;;;;;0.00;0.00;;;;;;;;;;4973602;28;20078;-87
2022/12/06 08:57:17;;;;;;;0.00;0.00;;;;;;;;;;4973211;28;20408;-87
2022/12/06 08:59:43;;;;;;;0.00;0.00;;;;;;;;;;4973925;28;20090;-89
2022/12/06 09:02:10;;;;;;;0.00;0.00;;;;;;;;;;4973457;28;20111;-90
2022/12/06 09:04:36;;;;;;;0.00;0.00;;;;;;;;;;4973972;28;20049;-89
2022/12/06 09:07:02;;;;;;;0.00;0.00;;;;;;;;;;4974022;28;20121;-89
2022/12/06 09:09:28;;;;;;;0.00;0.00;;;;;;;;;;4974157;28;20054;-91
2022/12/06 09:11:54;;;;;;;0.00;0.00;;;;;;;;;;4973387;28;20130;-90
2022/12/06 09:14:20;;;;;;;0.00;0.00;;;;;;;;;;4973588;28;20085;-90
2022/12/06 09:16:46;;;;;;;0.00;0.00;;;;;;;;;;4973599;28;20381;-92
2022/12/06 09:19:13;;;;;;;0.00;0.00;;;;;;;;;;4973538;28;20484;-91
2022/12/06 09:21:41;;;;;;;0.00;0.00;;;;;;;;;;4972705;28;20082;-90
2022/12/06 09:24:09;;;;;;;0.00;0.00;;;;;;;;;;4974026;28;20428;-89
2022/12/06 09:26:36;;;;;;;0.00;0.00;;;;;;;;;;4973532;28;20096;-89
2022/12/06 09:29:02;;;;;;;0.00;0.00;;;;;;;;;;4974190;28;20043;-91
2022/12/06 09:31:29;;;;;;;0.00;0.00;;;;;;;;;;4975861;28;20042;-89
2022/12/06 09:33:55;;;;;;;0.00;0.00;;;;;;;;;;4972694;28;20053;-90
2022/12/06 09:36:26;;;;;;;0.00;0.00;;;;;;;;;;4973183;28;20046;-89
2022/12/06 09:38:59;;;;;;;0.00;0.00;;;;;;;;;;4973291;28;20361;-89
2022/12/06 09:41:31;;;;;;;0.00;0.00;;;;;;;;;;4973709;28;20125;-91
2022/12/06 09:44:16;;;;;;;0.00;0.00;;;;;;;;;;4973857;28;20035;-91
2022/12/06 09:47:00;;;;;;;0.00;0.00;;;;;;;;;;4973478;28;20365;-91
2022/12/06 09:49:28;;;;;;;0.00;0.00;;;;;;;;;;4973578;28;20385;-90
2022/12/06 09:51:54;;;;;;;0.00;0.00;;;;;;;;;;4972994;28;20042;-89
2022/12/06 09:54:20;;;;;;;0.00;0.00;;;;;;;;;;4973179;28;20096;-91
2022/12/06 09:56:49;;;;;;;0.00;0.00;;;;;;;;;;4973079;28;20050;-91
2022/12/06 09:59:30;;;;;;;0.00;0.00;;;;;;;;;;4973285;28;20074;-93
2022/12/06 10:02:14;;;;;;;0.00;0.00;;;;;;;;;;4973510;28;20140;-93
2022/12/06 10:04:55;;;;;;;0.00;0.00;;;;;;;;;;4973815;28;20093;-92
2022/12/06 10:07:40;;;;;;;0.00;0.00;;;;;;;;;;4973369;28;20038;-91
2022/12/06 10:10:15;;;;;;;0.00;0.00;;;;;;;;;;4973427;28;20081;-91
2022/12/06 10:12:41;;;;;;;0.00;0.00;;;;;;;;;;4973630;28;20089;-92
2022/12/06 10:15:10;;;;;;;0.00;0.00;;;;;;;;;;4973841;28;20046;-92
2022/12/06 10:17:55;;;;;;;0.00;0.00;;;;;;;;;;4973051;28;20043;-91
2022/12/06 10:20:39;;;;;;;0.00;0.00;;;;;;;;;;4973193;28;20074;-88
2022/12/06 10:23:15;;;;;;;0.00;0.00;;;;;;;;;;4973283;28;20097;-90
2022/12/06 10:25:41;;;;;;;0.00;0.00;;;;;;;;;;4974090;28;20039;-94
2022/12/06 10:28:14;;;;;;;0.00;0.00;;;;;;;;;;4973693;28;20439;-90
2022/12/06 10:30:49;;;;;;;0.00;0.00;;;;;;;;;;4973842;28;20049;-92
2022/12/06 10:33:33;;;;;;;0.00;0.00;;;;;;;;;;4974992;28;20050;-91
2022/12/06 10:36:01;;;;;;;0.00;0.00;;;;;;;;;;4977309;28;20047;-91
2022/12/06 10:38:27;;;;;;;0.00;0.00;;;;;;;;;;4976572;28;20046;-90
2022/12/06 10:41:06;;;;;;;0.00;0.00;;;;;;;;;;4977220;28;20047;-91
2022/12/06 10:43:39;;;;;;;0.00;0.00;;;;;;;;;;4978766;28;20047;-93
2022/12/06 10:48:52;;;;;;;0.00;0.00;;;;;;;;;;4977968;28;20043;-91
2022/12/06 10:51:21;;;;;;;0.00;0.00;;;;;;;;;;4979446;28;20047;-92
2022/12/06 10:53:50;;;;;;;0.00;0.00;;;;;;;;;;4947552;28;20182;-93
2022/12/06 10:56:19;;;;;;;0.00;0.00;;;;;;;;;;4976753;28;20043;-92
2022/12/06 10:58:55;;;;;;;0.00;0.00;;;;;;;;;;4960500;28;20476;-94
2022/12/06 11:01:24;;;;;;;0.00;0.00;;;;;;;;;;4960609;28;20137;-92
2022/12/06 11:04:03;;;;;;;0.52;0.20;;;;;;;;;;4960811;28;20039;-94
2022/12/06 11:06:38;;;;;;;0.00;0.00;;;;;;;;;;4961581;28;20043;-92
2022/12/06 11:09:20;;;;;;;0.00;0.00;;;;;;;;;;4960684;28;20532;-92
2022/12/06 11:11:48;;;;;;;0.00;0.00;;;;;;;;;;4976185;28;20053;-91
2022/12/06 11:14:20;;;;;;;0.00;0.00;;;;;;;;;;4959120;28;20086;-93
2022/12/06 11:17:00;;;;;;;0.00;0.00;;;;;;;;;;4954365;28;20085;-90
2022/12/06 11:19:33;;;;;;;0.00;0.00;;;;;;;;;;4972940;28;20497;-90
2022/12/06 11:22:12;;;;;;;0.00;0.00;;;;;;;;;;4971929;28;20035;-93
2022/12/06 11:24:42;;;;;;;0.00;0.00;;;;;;;;;;4953263;28;20094;-93
2022/12/06 11:27:14;;;;;;;0.00;0.00;;;;;;;;;;4959805;28;20043;-92
2022/12/06 11:29:41;;;;;;;0.00;0.00;;;;;;;;;;4957669;28;20392;-93
2022/12/06 11:32:08;;;;;;;0.00;0.00;;;;;;;;;;4959550;28;20065;-92
2022/12/06 11:34:54;;;;;;;0.00;0.00;;;;;;;;;;4959838;28;20046;-93
2022/12/06 11:37:22;;;;;;;0.00;0.00;;;;;;;;;;4975574;28;20515;-91
2022/12/06 11:39:50;;;;;;;0.00;0.00;;;;;;;;;;4976236;28;20042;-92
2022/12/06 11:42:20;;;;;;;0.00;0.00;;;;;;;;;;4959412;28;20131;-91
2022/12/06 11:44:54;;;;;;;0.00;0.00;;;;;;;;;;4959619;28;20047;-91
2022/12/06 11:47:21;;;;;;;0.00;0.00;;;;;;;;;;4959487;28;20038;-91
2022/12/06 11:49:48;;;;;;;0.00;0.00;;;;;;;;;;4960419;28;20101;-92
2022/12/06 11:52:17;;;;;;;0.00;0.00;;;;;;;;;;4959925;28;20043;-91
2022/12/06 11:54:49;;;;;;;0.00;0.00;;;;;;;;;;4975794;28;20047;-92
2022/12/06 11:57:19;;;;;;;0.00;0.00;;;;;;;;;;4959693;28;20047;-92
2022/12/06 12:00:04;;;;;;;0.00;0.00;;;;;;;;;;4959717;28;20076;-93
2022/12/06 12:02:31;;;;;;;0.00;0.00;;;;;;;;;;4959492;28;20086;-94
2022/12/06 12:05:07;;;;;;;0.00;0.00;;;;;;;;;;4976967;28;20047;-94
2022/12/06 12:07:36;;;;;;;0.00;0.00;;;;;;;;;;4960597;28;20070;-93
2022/12/06 12:10:27;;;;;;;0.00;0.00;;;;;;;;;;4959380;28;20071;-92
2022/12/06 12:15:40;;;;;;;0.00;0.00;;;;;;;;;;4975424;28;20047;-92
2022/12/06 12:18:20;;;;;;;0.00;0.00;;;;;;;;;;4975023;28;20082;-91
2022/12/06 12:20:46;;;;;;;0.00;0.00;;;;;;;;;;4959331;28;20039;-91
2022/12/06 12:23:20;;;;;;;0.00;0.00;;;;;;;;;;4975367;28;20050;-92
2022/12/06 12:26:05;;;;;;;0.00;0.00;;;;;;;;;;4959559;28;20070;-92
2022/12/06 12:28:33;;;;;;;0.00;0.00;;;;;;;;;;4959086;28;20042;-91
2022/12/06 12:31:01;;;;;;;0.00;0.00;;;;;;;;;;4975097;28;20092;-91
2022/12/06 12:33:29;;;;;;;0.00;0.00;;;;;;;;;;4974901;28;20078;-91
2022/12/06 12:36:08;;;;;;;0.00;0.00;;;;;;;;;;4958822;28;20047;-92
2022/12/06 12:38:42;;;;;;;0.00;0.00;;;;;;;;;;4958683;28;20078;-92
2022/12/06 12:41:28;;;;;;;0.00;0.00;;;;;;;;;;4975146;28;20396;-91
2022/12/06 12:43:58;;;;;;;0.00;0.00;;;;;;;;;;4974696;28;20042;-92
2022/12/06 12:46:25;;;;;;;0.00;0.00;;;;;;;;;;4960204;28;20121;-91
2022/12/06 12:48:51;;;;;;;0.00;0.00;;;;;;;;;;4958913;28;20038;-93
2022/12/06 12:51:28;;;;;;;0.00;0.00;;;;;;;;;;4974892;28;20050;-93
2022/12/06 12:54:00;;;;;;;0.00;0.00;;;;;;;;;;4958806;28;20469;-91
2022/12/06 12:56:26;;;;;;;0.00;0.00;;;;;;;;;;4973641;28;20050;-92
2022/12/06 12:58:54;;;;;;;0.00;0.00;;;;;;;;;;4974641;28;20043;-92
2022/12/06 13:01:23;;;;;;;0.00;0.00;;;;;;;;;;4958060;28;20038;-90
2022/12/06 13:03:54;;;;;;;0.00;0.00;;;;;;;;;;4993227;28;20101;-91
2022/12/06 13:06:33;;;;;;;0.00;0.00;;;;;;;;;;4993839;28;20041;-90
2022/12/06 13:09:01;;;;;;;0.00;0.00;;;;;;;;;;4993609;28;20050;-92
2022/12/06 13:11:27;;;;;;;0.00;0.00;;;;;;;;;;4993622;28;20046;-92
2022/12/06 13:13:55;;;;;;;0.00;0.00;;;;;;;;;;4993481;28;20046;-91
2022/12/06 13:16:28;;;;;;;0.00;0.00;;;;;;;;;;4993799;28;20042;-92
2022/12/06 13:18:55;;;;;;;0.00;0.00;;;;;;;;;;4994072;28;20443;-91
2022/12/06 13:21:28;;;;;;;0.00;0.00;;;;;;;;;;4993883;28;20042;-92
2022/12/06 13:23:59;;;;;;;0.00;0.00;;;;;;;;;;4992948;28;20503;-89
2022/12/06 13:26:27;;;;;;;0.00;0.00;;;;;;;;;;4992698;28;20049;-89
2022/12/06 13:28:56;;;;;;;0.00;0.00;;;;;;;;;;4992628;28;20102;-90
2022/12/06 13:31:24;;;;;;;0.00;0.00;;;;;;;;;;4992912;28;20057;-89
2022/12/06 13:33:52;;;;;;;0.00;0.00;;;;;;;;;;4992776;28;20065;-89
2022/12/06 13:36:19;;;;;;;0.00;0.00;;;;;;;;;;4993019;28;20045;-89
2022/12/06 13:38:45;;;;;;;0.00;0.00;;;;;;;;;;4992591;28;20042;-90
2022/12/06 13:41:12;;;;;;;0.00;0.00;;;;;;;;;;4992476;28;20157;-90
2022/12/06 13:43:38;;;;;;;0.00;0.00;;;;;;;;;;4992307;28;20042;-90
2022/12/06 13:46:22;;;;;;;0.00;0.00;;;;;;;;;;4993224;28;20049;-92
2022/12/06 13:48:50;;;;;;;0.00;0.00;;;;;;;;;;4993065;28;20399;-92
2022/12/06 13:51:33;;;;;;;0.00;0.00;;;;;;;;;;4973708;28;20038;-92
2022/12/06 13:54:02;;;;;;;0.00;0.00;;;;;;;;;;4957342;28;20066;-92
2022/12/06 13:56:34;;;;;;;0.00;0.00;;;;;;;;;;4973403;28;20106;-90
2022/12/06 13:59:02;;;;;;;0.00;0.00;;;;;;;;;;4973539;28;20531;-91
2022/12/06 14:01:47;;;;;;;0.00;0.00;;;;;;;;;;4973848;28;20093;-92
2022/12/06 14:04:26;;;;;;;0.00;0.00;;;;;;;;;;4957523;28;20047;-92
2022/12/06 14:06:58;;;;;;;0.00;0.00;;;;;;;;;;4973841;28;20399;-91
2022/12/06 14:09:25;;;;;;;0.00;0.00;;;;;;;;;;4960619;28;20038;-90
2022/12/06 14:11:52;;;;;;;0.00;0.00;;;;;;;;;;4975847;28;20546;-90
2022/12/06 14:14:19;;;;;;;0.00;0.00;;;;;;;;;;4969241;28;20051;-91
2022/12/06 14:16:45;;;;;;;0.00;0.00;;;;;;;;;;4958183;29;20136;-90
2022/12/06 14:19:20;;;;;;;0.00;0.00;;;;;;;;;;4958438;28;20074;-91
2022/12/06 14:21:51;;;;;;;0.00;0.00;;;;;;;;;;4957895;29;20081;-91
2022/12/06 14:24:26;;;;;;;0.00;0.00;;;;;;;;;;4957566;28;20040;-90
2022/12/06 14:26:52;;;;;;;0.00;0.00;;;;;;;;;;4957943;29;20125;-91
2022/12/06 14:29:23;;;;;;;0.00;0.00;;;;;;;;;;4957485;28;20077;-90
2022/12/06 14:31:50;;;;;;;0.00;0.00;;;;;;;;;;4939344;29;20054;-91
2022/12/06 14:34:26;;;;;;;0.00;0.00;;;;;;;;;;4957779;29;20047;-91
2022/12/06 14:36:53;;;;;;;0.00;0.00;;;;;;;;;;4958163;28;20397;-91
2022/12/06 14:39:20;;;;;;;0.00;0.00;;;;;;;;;;4987738;28;20065;-94
2022/12/06 14:44:30;;;;;;;0.00;0.00;;;;;;;;;;5341026;23;20050;-89
2022/12/06 14:46:56;;;;;;;0.00;0.00;;;;;;;;;;4969068;28;20042;-91
2022/12/06 14:52:17;;;;;;;0.00;0.00;;;;;;;;;;4976811;28;20050;-91
2022/12/06 14:54:44;;;;;;;0.00;0.00;;;;;;;;;;4948160;28;20535;-89
2022/12/06 14:57:30;;;;;;;0.00;0.00;;;;;;;;;;4941514;29;20055;-90
2022/12/06 15:00:02;;;;;;;0.00;0.00;;;;;;;;;;4941153;29;20046;-89
2022/12/06 15:02:30;;;;;;;0.00;0.00;;;;;;;;;;4941258;29;20058;-90
2022/12/06 15:04:56;;;;;;;0.00;0.00;;;;;;;;;;4957020;28;20051;-88
2022/12/06 15:07:30;;;;;;;0.00;0.00;;;;;;;;;;4941326;29;20130;-90
2022/12/06 15:09:56;;;;;;;0.00;0.00;;;;;;;;;;4956952;29;20043;-90
2022/12/06 15:15:34;;;;;;;0.00;0.00;;;;;;;;;;4956816;28;20047;-90
2022/12/06 15:18:19;;;;;;;0.00;0.00;;;;;;;;;;4938457;29;20051;-89
2022/12/06 15:20:46;;;;;;;0.00;0.00;;;;;;;;;;4939751;29;20155;-90
2022/12/06 15:23:31;;;;;;;0.00;0.00;;;;;;;;;;4940688;28;20042;-90
2022/12/06 15:25:57;;;;;;;0.00;0.00;;;;;;;;;;4956629;29;20039;-90
2022/12/06 15:28:23;;;;;;;0.00;0.00;;;;;;;;;;4956912;29;20319;-90
2022/12/06 15:30:49;;;;;;;0.00;0.00;;;;;;;;;;4957088;29;20043;-89
2022/12/06 15:33:16;;;;;;;0.00;0.00;;;;;;;;;;4956952;28;20051;-88